Toccata — FGB2814 — position and weather

sailwx.info

Track history (hours):
 
Tides and Currents Weather Stations Pressure Air Temp Water Temp Dewpoint Dewpoint Depression Visibility Wind Speed Wind Dir Waves Ship Positions

Toccata

Last reported at 2017-Oct-14 15:18 UTC. Time now 2017-Nov-22 07:36 UTC.
Position N 47°35' W 003°01'.
Warning: this ship's position is 38 days out of date.

Length 12 m.

Type: Sailing vessel. MMSI: 227553850.

Date/timePositionNaut miles runAvg speedWind from/ knotsBaromVisibWave heightAir tempDewpointWater temp
2017-Oct-14 15:18N 47°35' W 003°01'1 3.7
2017-Oct-14 15:00N 47°34' W 003°01'2 4.7
2017-Oct-14 14:30N 47°31' W 002°60'2 0.6
2017-Oct-14 10:59N 47°30' W 002°58'3 7.2
2017-Oct-14 10:30N 47°33' W 003°00'  
2017-Oct-07 15:19N 47°35' W 003°01'3 8.0
2017-Oct-07 14:57N 47°32' W 003°01'4 2.0
2017-Oct-07 12:56N 47°28' W 003°03'4 8.0
2017-Oct-07 12:27N 47°31' W 003°01'  
Track history (hours):
 
Tides and Currents Weather Stations Pressure Air Temp Water Temp Dewpoint Dewpoint Depression Visibility Wind Speed Wind Dir Waves Ship Positions

Toccata

Last reported at 2017-Oct-14 15:18 UTC. Time now 2017-Nov-22 07:36 UTC.
Position N 47°35' W 003°01'.
Warning: this ship's position is 38 days out of date.

Length 12 m.

Type: Sailing vessel. MMSI: 227553850.

Date/timePositionNaut miles runAvg speedWind from/ knotsBaromVisibWave heightAir tempDewpointWater temp
2017-Oct-14 15:18N 47°35' W 003°01'1 3.7
2017-Oct-14 15:00N 47°34' W 003°01'2 4.7
2017-Oct-14 14:30N 47°31' W 002°60'2 0.6
2017-Oct-14 10:59N 47°30' W 002°58'3 7.2
2017-Oct-14 10:30N 47°33' W 003°00'  
2017-Oct-07 15:19N 47°35' W 003°01'3 8.0
2017-Oct-07 14:57N 47°32' W 003°01'4 2.0
2017-Oct-07 12:56N 47°28' W 003°03'4 8.0
2017-Oct-07 12:27N 47°31' W 003°01'  

Dump ship's entire track history